createdAt,value
2023-02-06T00:00:42.422Z,100.00
2023-02-06T00:03:15.506Z,100.00
2023-02-06T00:06:00.043Z,100.00
2023-02-06T00:08:34.818Z,100.00
2023-02-06T00:11:10.347Z,100.00
2023-02-06T00:13:44.674Z,100.00
2023-02-06T00:16:24.057Z,100.00
2023-02-06T00:18:59.430Z,100.00
2023-02-06T00:21:33.007Z,100.00
2023-02-06T00:24:07.212Z,100.00
2023-02-06T00:26:41.078Z,100.00
2023-02-06T00:29:13.982Z,100.00
2023-02-06T00:31:47.002Z,100.00
2023-02-06T00:34:20.099Z,100.00
2023-02-06T00:36:54.177Z,100.00
2023-02-06T00:39:28.400Z,100.00
2023-02-06T00:42:01.246Z,100.00
2023-02-06T00:44:34.063Z,100.00
2023-02-06T00:47:07.060Z,100.00
2023-02-06T00:49:40.174Z,100.00
2023-02-06T00:52:13.049Z,100.00
2023-02-06T00:54:46.537Z,100.00
2023-02-06T00:57:19.499Z,100.00
2023-02-06T00:59:54.625Z,100.00
2023-02-06T01:02:27.644Z,100.00
2023-02-06T01:05:00.900Z,100.00
2023-02-06T01:07:37.004Z,100.00
2023-02-06T01:10:11.358Z,100.00
2023-02-06T01:12:44.893Z,100.00
2023-02-06T01:15:18.363Z,100.00
2023-02-06T01:17:51.657Z,100.00
2023-02-06T01:20:24.985Z,100.00
2023-02-06T01:22:57.980Z,100.00
2023-02-06T01:25:31.279Z,100.00
2023-02-06T01:28:05.230Z,100.00
2023-02-06T01:30:38.753Z,100.00
2023-02-06T01:33:12.620Z,100.00
2023-02-06T01:35:45.507Z,100.00
2023-02-06T01:38:18.845Z,100.00
2023-02-06T01:40:52.080Z,100.00
2023-02-06T01:43:25.145Z,100.00
2023-02-06T01:45:58.546Z,100.00
2023-02-06T01:48:38.472Z,100.00
2023-02-06T01:51:18.472Z,100.00
2023-02-06T01:53:55.584Z,100.00
2023-02-06T01:56:31.546Z,100.00
2023-02-06T01:59:05.749Z,100.00
2023-02-06T02:01:38.964Z,100.00
2023-02-06T02:04:16.453Z,100.00
2023-02-06T02:07:06.363Z,100.00
2023-02-06T02:09:39.433Z,100.00
2023-02-06T02:12:13.180Z,100.00
2023-02-06T02:14:49.629Z,100.00
2023-02-06T02:17:41.772Z,100.00
2023-02-06T02:20:53.000Z,100.00
2023-02-06T02:23:42.440Z,100.00
2023-02-06T02:26:32.585Z,100.00
2023-02-06T02:29:12.879Z,100.00
2023-02-06T02:32:02.558Z,100.00
2023-02-06T02:35:10.668Z,100.00
2023-02-06T02:38:03.399Z,100.00
2023-02-06T02:41:06.205Z,100.00
2023-02-06T02:44:01.013Z,100.00
2023-02-06T02:46:44.086Z,100.00
2023-02-06T02:49:23.380Z,100.00
2023-02-06T02:51:57.207Z,100.00
2023-02-06T02:54:30.189Z,100.00
2023-02-06T02:57:15.414Z,100.00
2023-02-06T02:59:49.733Z,100.00
2023-02-06T03:02:29.968Z,100.00
2023-02-06T03:05:09.592Z,100.00
2023-02-06T03:08:03.900Z,100.00
2023-02-06T03:10:44.121Z,100.00
2023-02-06T03:13:39.082Z,100.00
2023-02-06T03:16:49.054Z,100.00
2023-02-06T03:19:26.160Z,100.00
2023-02-06T03:21:59.654Z,100.00
2023-02-06T03:24:35.934Z,100.00
2023-02-06T03:27:12.873Z,100.00
2023-02-06T03:29:46.352Z,100.00
2023-02-06T03:32:37.911Z,100.00
2023-02-06T03:35:22.170Z,100.00
2023-02-06T03:37:55.438Z,100.00
2023-02-06T03:40:30.617Z,100.00
2023-02-06T03:43:05.779Z,100.00
2023-02-06T03:45:42.413Z,100.00
2023-02-06T03:48:22.663Z,100.00
2023-02-06T03:50:57.132Z,100.00
2023-02-06T03:53:31.174Z,100.00
2023-02-06T03:56:08.756Z,100.00
2023-02-06T03:58:42.280Z,100.00
2023-02-06T04:01:16.182Z,100.00
2023-02-06T04:03:49.690Z,100.00
2023-02-06T04:06:22.822Z,100.00
2023-02-06T04:08:55.829Z,100.00
2023-02-06T04:11:28.829Z,100.00
2023-02-06T04:14:02.566Z,100.00
2023-02-06T04:16:36.127Z,100.00
2023-02-06T04:19:08.953Z,100.00
2023-02-06T04:21:41.719Z,100.00
2023-02-06T04:24:15.093Z,100.00
2023-02-06T04:26:48.012Z,100.00
2023-02-06T04:29:21.050Z,100.00
2023-02-06T04:31:53.788Z,100.00
2023-02-06T04:34:26.630Z,100.00
2023-02-06T04:36:59.690Z,100.00
2023-02-06T04:39:32.758Z,100.00
2023-02-06T04:42:05.959Z,100.00
2023-02-06T04:44:39.165Z,100.00
2023-02-06T04:47:12.220Z,100.00
2023-02-06T04:49:44.950Z,100.00
2023-02-06T04:52:17.868Z,100.00
2023-02-06T04:54:51.111Z,100.00
2023-02-06T04:57:24.562Z,100.00
2023-02-06T04:59:57.455Z,100.00
2023-02-06T05:02:30.304Z,100.00
2023-02-06T05:05:03.279Z,100.00
2023-02-06T05:07:37.405Z,100.00
2023-02-06T05:10:11.708Z,100.00
2023-02-06T05:12:46.268Z,100.00
2023-02-06T05:15:19.585Z,100.00
2023-02-06T05:17:53.097Z,100.00
2023-02-06T05:20:26.178Z,100.00
2023-02-06T05:23:00.237Z,100.00
2023-02-06T05:25:33.561Z,100.00
2023-02-06T05:28:07.702Z,100.00
2023-02-06T05:30:41.016Z,100.00
2023-02-06T05:33:14.116Z,100.00
2023-02-06T05:35:47.279Z,100.00
2023-02-06T05:38:20.886Z,100.00
2023-02-06T05:40:54.126Z,100.00
2023-02-06T05:43:26.896Z,100.00
2023-02-06T05:46:00.128Z,100.00
2023-02-06T05:48:35.156Z,100.00
2023-02-06T05:51:08.205Z,100.00
2023-02-06T05:53:41.177Z,100.00
2023-02-06T05:56:14.117Z,100.00
2023-02-06T05:58:47.681Z,100.00
2023-02-06T06:01:20.498Z,100.00
2023-02-06T06:03:53.407Z,100.00
2023-02-06T06:06:26.196Z,100.00
2023-02-06T06:09:01.079Z,100.00
2023-02-06T06:11:34.265Z,100.00
2023-02-06T06:14:07.416Z,100.00
2023-02-06T06:16:42.162Z,100.00
2023-02-06T06:19:14.091Z,100.00
2023-02-06T06:21:46.988Z,100.00
2023-02-06T06:24:20.741Z,100.00
2023-02-06T06:26:53.533Z,99.90
2023-02-06T06:29:27.485Z,100.00
2023-02-06T06:32:00.221Z,99.78
2023-02-06T06:34:33.176Z,99.71
2023-02-06T06:37:06.769Z,99.62
2023-02-06T06:39:39.507Z,99.41
2023-02-06T06:42:12.308Z,98.92
2023-02-06T06:44:45.287Z,98.58
2023-02-06T06:47:18.368Z,98.36
2023-02-06T06:49:51.303Z,98.40
2023-02-06T06:52:25.747Z,98.11
2023-02-06T06:54:59.248Z,98.10
2023-02-06T06:57:35.481Z,98.08
2023-02-06T07:00:10.502Z,97.75
2023-02-06T07:02:43.624Z,97.70
2023-02-06T07:05:16.545Z,97.38
2023-02-06T07:07:50.221Z,97.29
2023-02-06T07:10:23.284Z,97.32
2023-02-06T07:12:56.962Z,97.14
2023-02-06T07:15:30.139Z,96.77
2023-02-06T07:18:03.722Z,96.71
2023-02-06T07:20:38.322Z,96.46
2023-02-06T07:23:11.792Z,96.15
2023-02-06T07:25:44.943Z,95.99
2023-02-06T07:28:18.074Z,95.67
2023-02-06T07:30:51.004Z,95.45
2023-02-06T07:33:24.046Z,95.31
2023-02-06T07:35:57.114Z,94.87
2023-02-06T07:38:30.374Z,94.29
2023-02-06T07:41:04.333Z,94.13
2023-02-06T07:43:39.711Z,93.63
2023-02-06T07:46:12.780Z,93.43
2023-02-06T07:48:45.760Z,93.38
2023-02-06T07:51:18.628Z,92.91
2023-02-06T07:53:51.441Z,92.95
2023-02-06T07:56:25.516Z,92.30
2023-02-06T07:58:58.394Z,91.77
2023-02-06T08:01:31.559Z,91.30
2023-02-06T08:04:04.790Z,91.12
2023-02-06T08:06:37.704Z,91.08
2023-02-06T08:09:19.457Z,91.14
2023-02-06T08:11:55.583Z,90.47
2023-02-06T08:14:28.993Z,90.22
2023-02-06T08:17:02.021Z,90.05
2023-02-06T08:19:34.998Z,89.69
2023-02-06T08:22:08.086Z,89.84
2023-02-06T08:24:41.094Z,90.08
2023-02-06T08:27:14.079Z,89.93
2023-02-06T08:29:47.704Z,89.93
2023-02-06T08:32:20.671Z,90.21
2023-02-06T08:34:53.944Z,90.00
2023-02-06T08:37:26.684Z,90.30
2023-02-06T08:39:59.679Z,89.99
2023-02-06T08:42:33.413Z,89.97
2023-02-06T08:45:06.627Z,89.88
2023-02-06T08:47:40.752Z,89.88
2023-02-06T08:50:13.932Z,89.59
2023-02-06T08:52:46.796Z,89.43
2023-02-06T08:55:20.268Z,89.27
2023-02-06T08:57:55.120Z,89.38
2023-02-06T09:00:28.220Z,89.24
2023-02-06T09:03:01.475Z,89.01
2023-02-06T09:05:34.976Z,88.63
2023-02-06T09:08:08.149Z,88.54
2023-02-06T09:10:41.497Z,87.83
2023-02-06T09:13:14.376Z,87.21
2023-02-06T09:15:54.939Z,86.64
2023-02-06T09:18:27.503Z,86.19
2023-02-06T09:21:11.692Z,85.98
2023-02-06T09:23:48.308Z,85.42
2023-02-06T09:26:25.171Z,85.42
2023-02-06T09:29:00.683Z,84.90
2023-02-06T09:31:33.824Z,84.34
2023-02-06T09:34:08.673Z,84.38
2023-02-06T09:36:41.477Z,84.74
2023-02-06T09:39:14.332Z,84.08
2023-02-06T09:41:52.448Z,84.55
2023-02-06T09:44:44.221Z,84.76
2023-02-06T09:47:35.359Z,85.18
2023-02-06T09:50:46.030Z,85.45
2023-02-06T09:53:30.464Z,85.21
2023-02-06T09:56:36.064Z,85.68
2023-02-06T09:59:14.428Z,86.08
2023-02-06T10:02:23.672Z,86.56
2023-02-06T10:05:23.269Z,86.92
2023-02-06T10:08:20.771Z,87.51
2023-02-06T10:11:02.890Z,87.83
2023-02-06T10:13:43.883Z,88.01
2023-02-06T10:16:30.497Z,87.93
2023-02-06T10:19:25.266Z,88.29
2023-02-06T10:22:10.193Z,88.31
2023-02-06T10:24:49.473Z,88.18
2023-02-06T10:27:22.324Z,88.23
2023-02-06T10:29:55.424Z,88.49
2023-02-06T10:32:35.785Z,88.36
2023-02-06T10:35:25.353Z,88.09
2023-02-06T10:38:23.793Z,88.48
2023-02-06T10:41:06.984Z,88.09
2023-02-06T10:43:53.949Z,87.94
2023-02-06T10:46:46.429Z,88.33
2023-02-06T10:49:28.244Z,88.52
2023-02-06T10:52:05.352Z,88.49
2023-02-06T10:54:46.630Z,87.83
2023-02-06T10:57:24.142Z,88.09
2023-02-06T11:00:02.599Z,87.86
2023-02-06T11:03:07.261Z,88.09
2023-02-06T11:05:35.287Z,88.35
2023-02-06T11:08:22.101Z,87.56
2023-02-06T11:10:56.297Z,87.81
2023-02-06T11:13:30.867Z,88.08
2023-02-06T11:16:10.617Z,87.83
2023-02-06T11:18:47.672Z,87.69
2023-02-06T11:21:42.132Z,87.83
2023-02-06T11:24:17.396Z,88.03
2023-02-06T11:26:57.830Z,88.12
2023-02-06T11:29:39.560Z,87.84
2023-02-06T11:32:28.636Z,88.02
2023-02-06T11:35:06.688Z,88.22
2023-02-06T11:37:42.898Z,88.30
2023-02-06T11:40:26.274Z,88.47
2023-02-06T11:43:28.792Z,88.40
2023-02-06T11:46:17.917Z,88.18
2023-02-06T11:49:04.601Z,88.22
2023-02-06T11:51:51.920Z,88.22
2023-02-06T11:54:29.971Z,88.14
2023-02-06T11:57:20.207Z,88.03
2023-02-06T12:00:06.966Z,87.84
2023-02-06T12:02:42.920Z,87.70
2023-02-06T12:05:19.689Z,87.96
2023-02-06T12:07:57.878Z,87.93
2023-02-06T12:10:35.521Z,88.01
2023-02-06T12:13:18.814Z,88.20
2023-02-06T12:15:55.039Z,88.23
2023-02-06T12:18:35.358Z,88.47
2023-02-06T12:21:27.961Z,88.73
2023-02-06T12:24:08.584Z,89.07
2023-02-06T12:26:41.947Z,89.05
2023-02-06T12:29:27.851Z,88.85
2023-02-06T12:32:18.761Z,89.01
2023-02-06T12:35:17.190Z,89.27
2023-02-06T12:37:55.560Z,89.45
2023-02-06T12:40:51.304Z,89.23
2023-02-06T12:43:24.556Z,89.58
2023-02-06T12:46:11.978Z,89.45
2023-02-06T12:48:56.028Z,89.38
2023-02-06T12:51:36.909Z,88.74
2023-02-06T12:54:20.033Z,88.87
2023-02-06T12:57:14.971Z,89.29
2023-02-06T13:00:38.433Z,89.42
2023-02-06T13:03:32.727Z,87.94
2023-02-06T13:06:24.219Z,87.73
2023-02-06T13:09:06.221Z,87.37
2023-02-06T13:11:42.824Z,87.01
2023-02-06T13:14:28.424Z,86.80
2023-02-06T13:17:11.851Z,87.05
2023-02-06T13:19:49.515Z,87.22
2023-02-06T13:22:27.101Z,87.46
2023-02-06T13:24:59.994Z,86.98
2023-02-06T13:27:41.055Z,86.82
2023-02-06T13:30:37.095Z,86.88
2023-02-06T13:33:24.499Z,86.31
2023-02-06T13:36:10.696Z,86.07
2023-02-06T13:38:43.970Z,86.51
2023-02-06T13:41:20.593Z,86.86
2023-02-06T13:44:05.714Z,87.24
2023-02-06T13:46:58.239Z,87.38
2023-02-06T13:50:01.556Z,87.24
2023-02-06T13:52:54.071Z,87.00
2023-02-06T13:55:40.956Z,86.77
2023-02-06T13:58:33.477Z,86.76
2023-02-06T14:01:13.508Z,86.65
2023-02-06T14:03:50.333Z,86.72
2023-02-06T14:06:39.987Z,87.05
2023-02-06T14:09:44.503Z,87.28
2023-02-06T14:12:53.984Z,88.02
2023-02-06T14:15:58.506Z,88.71
2023-02-06T14:18:54.086Z,89.51
2023-02-06T14:21:52.419Z,90.09
2023-02-06T14:24:30.257Z,90.16
2023-02-06T14:27:31.326Z,90.27
2023-02-06T14:30:27.148Z,90.52
2023-02-06T14:33:10.515Z,90.59
2023-02-06T14:36:02.427Z,90.77
2023-02-06T14:39:22.242Z,91.14
2023-02-06T14:41:55.737Z,91.18
2023-02-06T14:44:31.828Z,91.41
2023-02-06T14:47:04.862Z,91.52
2023-02-06T14:49:39.567Z,91.68
2023-02-06T14:52:20.632Z,91.75
2023-02-06T14:54:53.826Z,91.88
2023-02-06T14:57:31.185Z,91.89
2023-02-06T15:00:20.140Z,92.33
2023-02-06T15:03:10.440Z,92.75
2023-02-06T15:05:43.204Z,93.05
2023-02-06T15:08:21.428Z,93.27
2023-02-06T15:11:03.979Z,93.48
2023-02-06T15:13:39.444Z,93.70
2023-02-06T15:16:12.265Z,93.91
2023-02-06T15:18:45.737Z,93.92
2023-02-06T15:21:21.339Z,93.89
2023-02-06T15:24:13.767Z,94.19
2023-02-06T15:27:12.397Z,94.45
2023-02-06T15:29:51.010Z,94.68
2023-02-06T15:32:38.025Z,94.77
2023-02-06T15:35:35.918Z,94.82
2023-02-06T15:38:14.739Z,94.67
2023-02-06T15:40:51.525Z,94.77
2023-02-06T15:43:26.683Z,94.77
2023-02-06T15:46:02.934Z,94.50
2023-02-06T15:48:52.334Z,93.93
2023-02-06T15:51:32.266Z,92.84
2023-02-06T15:54:21.254Z,92.59
2023-02-06T15:57:19.582Z,92.14
2023-02-06T15:59:53.604Z,91.84
2023-02-06T16:02:36.378Z,91.72
2023-02-06T16:05:10.341Z,91.73
2023-02-06T16:07:45.948Z,91.82
2023-02-06T16:10:27.547Z,91.91
2023-02-06T16:13:03.567Z,91.84
2023-02-06T16:15:40.935Z,92.16
2023-02-06T16:18:33.109Z,92.43
2023-02-06T16:21:25.623Z,92.78
2023-02-06T16:24:07.277Z,92.60
2023-02-06T16:26:52.549Z,92.49
2023-02-06T16:29:29.771Z,92.60
2023-02-06T16:32:06.649Z,92.53
2023-02-06T16:34:42.658Z,92.40
2023-02-06T16:37:19.363Z,92.07
2023-02-06T16:39:52.820Z,91.76
2023-02-06T16:42:34.708Z,92.04
2023-02-06T16:45:27.162Z,92.08
2023-02-06T16:47:59.774Z,91.59
2023-02-06T16:50:35.914Z,91.54
2023-02-06T16:53:18.742Z,91.64
2023-02-06T16:55:52.339Z,91.65
2023-02-06T16:58:28.028Z,91.71
2023-02-06T17:01:01.706Z,91.90
2023-02-06T17:03:37.989Z,92.09
2023-02-06T17:06:15.414Z,92.36
2023-02-06T17:08:48.302Z,92.56
2023-02-06T17:11:22.159Z,92.81
2023-02-06T17:13:54.908Z,92.90
2023-02-06T17:16:29.600Z,92.91
2023-02-06T17:19:02.491Z,92.87
2023-02-06T17:21:35.548Z,92.99
2023-02-06T17:24:08.808Z,92.99
2023-02-06T17:26:42.373Z,92.77
2023-02-06T17:29:16.419Z,92.15
2023-02-06T17:31:49.365Z,91.82
2023-02-06T17:34:23.629Z,91.45
2023-02-06T17:36:57.052Z,91.05
2023-02-06T17:39:30.386Z,90.99
2023-02-06T17:42:03.422Z,90.87
2023-02-06T17:44:36.788Z,90.87
2023-02-06T17:47:10.055Z,90.84
2023-02-06T17:49:42.874Z,90.65
2023-02-06T17:52:16.322Z,90.38
2023-02-06T17:54:49.089Z,90.33
2023-02-06T17:57:22.397Z,90.08
2023-02-06T17:59:55.834Z,89.95
2023-02-06T18:02:28.729Z,89.64
2023-02-06T18:05:01.772Z,89.58
2023-02-06T18:07:35.592Z,89.33
2023-02-06T18:10:10.113Z,89.41
2023-02-06T18:12:43.573Z,89.33
2023-02-06T18:15:17.908Z,89.34
2023-02-06T18:17:51.842Z,89.18
2023-02-06T18:20:25.163Z,88.77
2023-02-06T18:22:58.667Z,88.67
2023-02-06T18:25:31.484Z,88.65
2023-02-06T18:28:04.892Z,88.59
2023-02-06T18:30:38.274Z,88.61
2023-02-06T18:33:13.058Z,88.52
2023-02-06T18:35:46.946Z,88.60
2023-02-06T18:38:20.106Z,88.50
2023-02-06T18:40:53.674Z,88.76
2023-02-06T18:43:27.835Z,89.00
2023-02-06T18:46:02.267Z,88.88
2023-02-06T18:48:36.607Z,88.83
2023-02-06T18:51:08.890Z,88.84
2023-02-06T18:53:41.897Z,88.90
2023-02-06T18:56:14.828Z,88.93
2023-02-06T18:58:48.012Z,88.93
2023-02-06T19:01:24.384Z,88.75
2023-02-06T19:03:58.644Z,88.89
2023-02-06T19:06:35.365Z,88.97
2023-02-06T19:09:09.462Z,89.17
2023-02-06T19:11:43.893Z,89.23
2023-02-06T19:14:20.699Z,89.56
2023-02-06T19:16:55.248Z,89.61
2023-02-06T19:19:28.187Z,89.77
2023-02-06T19:22:01.468Z,89.82
2023-02-06T19:24:34.650Z,89.91
2023-02-06T19:27:07.285Z,89.83
2023-02-06T19:29:41.042Z,89.88
2023-02-06T19:32:14.687Z,89.89
2023-02-06T19:34:47.895Z,90.06
2023-02-06T19:37:22.444Z,90.15
2023-02-06T19:39:57.366Z,90.30
2023-02-06T19:42:30.355Z,90.43
2023-02-06T19:45:05.388Z,90.50
2023-02-06T19:47:39.821Z,90.62
2023-02-06T19:50:14.373Z,90.77
2023-02-06T19:52:48.310Z,91.03
2023-02-06T19:55:22.576Z,91.18
2023-02-06T19:57:56.924Z,91.42
2023-02-06T20:00:31.315Z,91.65
2023-02-06T20:03:05.761Z,91.67
2023-02-06T20:05:40.588Z,91.67
2023-02-06T20:08:16.007Z,91.67
2023-02-06T20:10:50.557Z,91.52
2023-02-06T20:13:25.010Z,91.51
2023-02-06T20:16:00.788Z,91.64
2023-02-06T20:18:37.287Z,91.56
2023-02-06T20:21:28.057Z,91.50
2023-02-06T20:24:06.944Z,91.56
2023-02-06T20:26:43.376Z,91.81
2023-02-06T20:29:27.707Z,91.75
2023-02-06T20:32:02.251Z,91.59
2023-02-06T20:34:37.263Z,91.46
2023-02-06T20:37:11.092Z,91.41
2023-02-06T20:39:44.370Z,91.46
2023-02-06T20:42:19.601Z,91.46
2023-02-06T20:44:53.723Z,91.58
2023-02-06T20:47:27.616Z,91.65
2023-02-06T20:50:02.033Z,91.86
2023-02-06T20:52:36.948Z,92.04
2023-02-06T20:55:11.052Z,92.21
2023-02-06T20:57:45.262Z,92.40
2023-02-06T21:00:20.805Z,92.41
2023-02-06T21:02:54.909Z,92.54
2023-02-06T21:05:28.264Z,92.74
2023-02-06T21:08:01.946Z,92.71
2023-02-06T21:10:36.763Z,92.63
2023-02-06T21:13:10.715Z,92.39
2023-02-06T21:15:46.802Z,92.61
2023-02-06T21:18:22.509Z,92.72
2023-02-06T21:20:58.291Z,92.85
2023-02-06T21:23:32.051Z,92.74
2023-02-06T21:26:07.168Z,92.76
2023-02-06T21:28:42.106Z,92.64
2023-02-06T21:31:27.686Z,92.49
2023-02-06T21:34:06.202Z,92.33
2023-02-06T21:36:42.201Z,92.12
2023-02-06T21:39:22.626Z,92.23
2023-02-06T21:41:57.421Z,92.34
2023-02-06T21:44:32.001Z,92.50
2023-02-06T21:47:06.284Z,92.69
2023-02-06T21:49:40.426Z,92.91
2023-02-06T21:52:14.488Z,93.07
2023-02-06T21:54:47.605Z,93.23
2023-02-06T21:57:22.000Z,93.37
2023-02-06T21:59:57.286Z,93.51
2023-02-06T22:02:31.696Z,93.63
2023-02-06T22:05:06.448Z,93.75
2023-02-06T22:07:40.891Z,94.01
2023-02-06T22:10:15.484Z,94.17
2023-02-06T22:12:53.176Z,94.26
2023-02-06T22:15:27.207Z,94.37
2023-02-06T22:18:02.016Z,94.39
2023-02-06T22:20:36.309Z,94.44
2023-02-06T22:23:09.169Z,94.37
2023-02-06T22:25:48.874Z,94.35
2023-02-06T22:28:23.046Z,94.16
2023-02-06T22:30:56.850Z,94.06
2023-02-06T22:33:30.709Z,93.83
2023-02-06T22:36:15.206Z,93.64
2023-02-06T22:38:51.691Z,93.63
2023-02-06T22:41:25.549Z,93.53
2023-02-06T22:43:59.777Z,93.47
2023-02-06T22:46:38.925Z,93.45
2023-02-06T22:49:13.822Z,93.39
2023-02-06T22:51:48.486Z,93.34
2023-02-06T22:54:22.518Z,93.43
2023-02-06T22:56:57.568Z,93.49
2023-02-06T22:59:31.527Z,93.58
2023-02-06T23:02:05.493Z,93.76
2023-02-06T23:04:40.983Z,93.91
2023-02-06T23:07:15.446Z,93.96
2023-02-06T23:09:49.754Z,94.04
2023-02-06T23:12:23.601Z,94.15
2023-02-06T23:14:58.349Z,94.22
2023-02-06T23:17:32.139Z,94.22
2023-02-06T23:20:07.110Z,94.26
2023-02-06T23:22:41.014Z,94.33
2023-02-06T23:25:15.033Z,94.32
2023-02-06T23:27:49.737Z,94.33
2023-02-06T23:30:24.150Z,94.34
2023-02-06T23:32:58.666Z,94.14
2023-02-06T23:35:34.358Z,93.96
2023-02-06T23:38:09.147Z,93.85
2023-02-06T23:40:43.176Z,93.52
2023-02-06T23:43:17.293Z,93.16
2023-02-06T23:45:51.399Z,93.07
2023-02-06T23:48:25.431Z,92.99
2023-02-06T23:50:59.910Z,92.85
2023-02-06T23:53:34.416Z,92.88
2023-02-06T23:56:29.309Z,93.01
2023-02-06T23:59:04.997Z,93.03
